createdAt,value
2022-10-18T00:01:43.878Z,100.00
2022-10-18T00:04:11.901Z,100.00
2022-10-18T00:06:43.376Z,100.00
2022-10-18T00:09:12.029Z,100.00
2022-10-18T00:11:41.662Z,100.00
2022-10-18T00:14:09.633Z,100.00
2022-10-18T00:16:37.674Z,100.00
2022-10-18T00:19:05.778Z,100.00
2022-10-18T00:21:33.871Z,100.00
2022-10-18T00:24:01.929Z,100.00
2022-10-18T00:26:31.866Z,100.00
2022-10-18T00:29:03.093Z,100.00
2022-10-18T00:31:33.184Z,100.00
2022-10-18T00:34:02.637Z,100.00
2022-10-18T00:36:34.290Z,100.00
2022-10-18T00:39:02.766Z,100.00
2022-10-18T00:41:33.058Z,100.00
2022-10-18T00:44:04.531Z,100.00
2022-10-18T00:46:34.065Z,100.00
2022-10-18T00:49:05.409Z,100.00
2022-10-18T00:51:48.214Z,100.00
2022-10-18T00:54:17.817Z,100.00
2022-10-18T00:56:46.319Z,100.00
2022-10-18T00:59:17.315Z,100.00
2022-10-18T01:01:46.395Z,100.00
2022-10-18T01:04:16.887Z,100.00
2022-10-18T01:06:52.835Z,100.00
2022-10-18T01:09:29.787Z,100.00
2022-10-18T01:12:15.518Z,100.00
2022-10-18T01:14:51.166Z,100.00
2022-10-18T01:17:22.098Z,100.00
2022-10-18T01:20:18.022Z,100.00
2022-10-18T01:22:49.829Z,100.00
2022-10-18T01:25:37.056Z,100.00
2022-10-18T01:28:25.415Z,100.00
2022-10-18T01:30:59.990Z,100.00
2022-10-18T01:33:34.403Z,100.00
2022-10-18T01:36:08.772Z,100.00
2022-10-18T01:38:39.566Z,100.00
2022-10-18T01:41:13.222Z,100.00
2022-10-18T01:43:44.874Z,100.00
2022-10-18T01:46:18.629Z,100.00
2022-10-18T01:48:47.334Z,100.00
2022-10-18T01:51:15.366Z,100.00
2022-10-18T01:53:43.370Z,100.00
2022-10-18T01:56:26.731Z,100.00
2022-10-18T01:59:04.281Z,100.00
2022-10-18T02:01:42.393Z,100.00
2022-10-18T02:04:21.496Z,100.00
2022-10-18T02:06:57.570Z,100.00
2022-10-18T02:09:35.142Z,100.00
2022-10-18T02:12:04.816Z,100.00
2022-10-18T02:14:34.334Z,100.00
2022-10-18T02:17:09.315Z,100.00
2022-10-18T02:19:42.001Z,100.00
2022-10-18T02:22:15.132Z,100.00
2022-10-18T02:24:47.444Z,100.00
2022-10-18T02:27:15.747Z,100.00
2022-10-18T02:29:45.461Z,100.00
2022-10-18T02:32:21.323Z,100.00
2022-10-18T02:34:58.381Z,100.00
2022-10-18T02:37:30.943Z,100.00
2022-10-18T02:39:59.088Z,100.00
2022-10-18T02:42:27.082Z,100.00
2022-10-18T02:44:55.069Z,100.00
2022-10-18T02:47:24.465Z,100.00
2022-10-18T02:49:52.437Z,100.00
2022-10-18T02:52:20.434Z,100.00
2022-10-18T02:54:48.412Z,100.00
2022-10-18T02:57:16.400Z,100.00
2022-10-18T02:59:44.377Z,100.00
2022-10-18T03:02:12.401Z,100.00
2022-10-18T03:04:41.805Z,100.00
2022-10-18T03:07:09.798Z,100.00
2022-10-18T03:09:37.809Z,100.00
2022-10-18T03:12:06.171Z,100.00
2022-10-18T03:14:34.212Z,100.00
2022-10-18T03:17:02.204Z,100.00
2022-10-18T03:19:30.300Z,100.00
2022-10-18T03:21:59.667Z,100.00
2022-10-18T03:24:27.753Z,100.00
2022-10-18T03:26:55.711Z,100.00
2022-10-18T03:29:23.686Z,100.00
2022-10-18T03:31:51.758Z,100.00
2022-10-18T03:34:19.794Z,100.00
2022-10-18T03:36:47.786Z,100.00
2022-10-18T03:39:17.348Z,100.00
2022-10-18T03:41:45.461Z,100.00
2022-10-18T03:44:13.612Z,100.00
2022-10-18T03:46:41.793Z,100.00
2022-10-18T03:49:09.802Z,100.00
2022-10-18T03:51:37.788Z,100.00
2022-10-18T03:54:05.933Z,100.00
2022-10-18T03:56:35.323Z,100.00
2022-10-18T03:59:04.608Z,100.00
2022-10-18T04:01:32.706Z,100.00
2022-10-18T04:04:00.779Z,100.00
2022-10-18T04:06:28.883Z,100.00
2022-10-18T04:08:57.161Z,100.00
2022-10-18T04:11:25.132Z,100.00
2022-10-18T04:13:54.520Z,100.00
2022-10-18T04:16:22.545Z,100.00
2022-10-18T04:18:50.557Z,100.00
2022-10-18T04:21:18.584Z,100.00
2022-10-18T04:23:48.557Z,100.00
2022-10-18T04:26:17.255Z,100.00
2022-10-18T04:28:45.693Z,100.00
2022-10-18T04:31:15.407Z,100.00
2022-10-18T04:33:43.379Z,100.00
2022-10-18T04:36:11.379Z,100.00
2022-10-18T04:38:39.364Z,100.00
2022-10-18T04:41:07.599Z,100.00
2022-10-18T04:43:35.851Z,100.00
2022-10-18T04:46:04.062Z,100.00
2022-10-18T04:48:33.642Z,100.00
2022-10-18T04:51:01.660Z,100.00
2022-10-18T04:53:29.633Z,100.00
2022-10-18T04:55:57.650Z,100.00
2022-10-18T04:58:25.905Z,100.00
2022-10-18T05:00:53.978Z,100.00
2022-10-18T05:03:22.011Z,100.00
2022-10-18T05:06:04.448Z,100.00
2022-10-18T05:08:33.577Z,100.00
2022-10-18T05:11:02.448Z,100.00
2022-10-18T05:13:31.132Z,100.00
2022-10-18T05:15:59.589Z,100.00
2022-10-18T05:18:28.022Z,100.00
2022-10-18T05:20:57.758Z,100.00
2022-10-18T05:23:25.957Z,100.00
2022-10-18T05:25:54.021Z,100.00
2022-10-18T05:31:12.224Z,100.00
2022-10-18T05:33:40.484Z,100.00
2022-10-18T05:36:10.785Z,100.00
2022-10-18T05:38:42.327Z,100.00
2022-10-18T05:41:10.729Z,100.00
2022-10-18T05:43:38.766Z,100.00
2022-10-18T05:46:13.695Z,100.00
2022-10-18T05:48:43.283Z,100.00
2022-10-18T05:51:12.645Z,100.00
2022-10-18T05:53:40.620Z,100.00
2022-10-18T05:56:11.878Z,100.00
2022-10-18T05:58:40.194Z,100.00
2022-10-18T06:01:08.733Z,100.00
2022-10-18T06:03:37.318Z,100.00
2022-10-18T06:06:07.525Z,100.00
2022-10-18T06:08:37.272Z,100.00
2022-10-18T06:11:08.320Z,100.00
2022-10-18T06:13:36.468Z,100.00
2022-10-18T06:16:04.496Z,100.00
2022-10-18T06:18:32.472Z,100.00
2022-10-18T06:21:00.918Z,100.00
2022-10-18T06:23:29.421Z,100.00
2022-10-18T06:26:01.579Z,100.00
2022-10-18T06:28:30.728Z,100.00
2022-10-18T06:30:59.205Z,100.00
2022-10-18T06:33:27.731Z,100.00
2022-10-18T06:35:57.249Z,100.00
2022-10-18T06:38:25.388Z,100.00
2022-10-18T06:40:53.376Z,100.00
2022-10-18T06:43:23.153Z,100.00
2022-10-18T06:45:51.885Z,100.00
2022-10-18T06:50:55.174Z,100.00
2022-10-18T06:53:23.197Z,100.00
2022-10-18T06:55:51.155Z,100.00
2022-10-18T06:58:19.483Z,100.00
2022-10-18T07:00:48.867Z,100.00
2022-10-18T07:03:16.838Z,100.00
2022-10-18T07:05:44.846Z,100.00
2022-10-18T07:08:12.873Z,100.00
2022-10-18T07:10:41.128Z,100.00
2022-10-18T07:13:31.048Z,100.00
2022-10-18T07:16:06.878Z,100.00
2022-10-18T07:18:35.736Z,100.00
2022-10-18T07:21:07.437Z,100.00
2022-10-18T07:23:36.120Z,100.00
2022-10-18T07:26:06.391Z,100.00
2022-10-18T07:28:34.825Z,100.00
2022-10-18T07:31:07.542Z,100.00
2022-10-18T07:33:35.275Z,100.00
2022-10-18T07:36:03.600Z,100.00
2022-10-18T07:38:31.652Z,100.00
2022-10-18T07:41:00.454Z,100.00
2022-10-18T07:43:28.688Z,100.00
2022-10-18T07:45:58.343Z,100.00
2022-10-18T07:48:28.628Z,100.00
2022-10-18T07:51:00.037Z,100.00
2022-10-18T07:53:28.194Z,100.00
2022-10-18T07:55:59.764Z,100.00
2022-10-18T07:58:28.940Z,100.00
2022-10-18T08:00:56.944Z,100.00
2022-10-18T08:03:24.964Z,100.00
2022-10-18T08:05:55.502Z,100.00
2022-10-18T08:08:24.954Z,100.00
2022-10-18T08:10:52.943Z,100.00
2022-10-18T08:13:21.502Z,100.00
2022-10-18T08:15:49.662Z,100.00
2022-10-18T08:18:17.641Z,100.00
2022-10-18T08:20:46.433Z,100.00
2022-10-18T08:23:15.782Z,100.00
2022-10-18T08:25:43.742Z,100.00
2022-10-18T08:28:13.853Z,100.00
2022-10-18T08:30:41.840Z,100.00
2022-10-18T08:33:09.871Z,100.00
2022-10-18T08:35:38.053Z,100.00
2022-10-18T08:38:06.161Z,100.00
2022-10-18T08:40:36.187Z,100.00
2022-10-18T08:43:10.246Z,100.00
2022-10-18T08:45:43.164Z,100.00
2022-10-18T08:48:26.803Z,100.00
2022-10-18T08:50:57.613Z,100.00
2022-10-18T08:53:30.180Z,100.00
2022-10-18T08:56:03.918Z,100.00
2022-10-18T08:58:33.673Z,100.00
2022-10-18T09:01:11.983Z,100.00
2022-10-18T09:04:01.988Z,100.00
2022-10-18T09:06:35.956Z,100.00
2022-10-18T09:09:21.614Z,100.00
2022-10-18T09:12:03.928Z,100.00
2022-10-18T09:14:44.516Z,100.00
2022-10-18T09:17:23.737Z,100.00
2022-10-18T09:20:02.612Z,100.00
2022-10-18T09:22:44.629Z,100.00
2022-10-18T09:25:20.495Z,100.00
2022-10-18T09:27:54.508Z,100.00
2022-10-18T09:30:34.759Z,100.00
2022-10-18T09:33:16.080Z,98.57
2022-10-18T09:35:50.068Z,97.44
2022-10-18T09:38:23.081Z,94.21
2022-10-18T09:40:57.102Z,95.32
2022-10-18T09:43:33.670Z,90.23
2022-10-18T09:46:03.156Z,90.47
2022-10-18T09:48:35.909Z,89.40
2022-10-18T09:51:09.242Z,82.73
2022-10-18T09:53:44.582Z,85.89
2022-10-18T09:56:16.838Z,85.98
2022-10-18T09:58:47.692Z,78.86
2022-10-18T10:01:19.468Z,79.56
2022-10-18T10:03:47.552Z,73.95
2022-10-18T10:06:25.305Z,72.28
2022-10-18T10:09:00.795Z,72.17
2022-10-18T10:11:35.448Z,74.34
2022-10-18T10:16:48.603Z,71.09
2022-10-18T10:19:21.560Z,70.75
2022-10-18T10:21:51.961Z,71.68
2022-10-18T10:24:27.438Z,72.83
2022-10-18T10:27:04.474Z,74.79
2022-10-18T10:30:01.543Z,71.29
2022-10-18T10:32:45.405Z,70.30
2022-10-18T10:35:33.948Z,70.93
2022-10-18T10:38:25.010Z,70.92
2022-10-18T10:40:53.468Z,68.23
2022-10-18T10:43:36.953Z,67.23
2022-10-18T10:46:09.805Z,67.77
2022-10-18T10:48:48.675Z,69.81
2022-10-18T10:51:19.583Z,70.05
2022-10-18T10:53:52.418Z,68.65
2022-10-18T10:56:26.709Z,68.03
2022-10-18T10:58:56.527Z,70.71
2022-10-18T11:01:29.917Z,71.35
2022-10-18T11:04:00.811Z,68.16
2022-10-18T11:06:59.133Z,68.16
2022-10-18T11:09:49.397Z,66.10
2022-10-18T11:12:25.910Z,65.46
2022-10-18T11:15:02.983Z,63.16
2022-10-18T11:17:37.162Z,61.83
2022-10-18T11:20:16.348Z,63.67
2022-10-18T11:22:50.768Z,63.60
2022-10-18T11:25:19.231Z,64.61
2022-10-18T11:27:55.863Z,61.85
2022-10-18T11:30:42.277Z,62.27
2022-10-18T11:33:33.592Z,64.09
2022-10-18T11:36:20.677Z,61.71
2022-10-18T11:38:54.143Z,61.45
2022-10-18T11:41:45.318Z,60.06
2022-10-18T11:44:24.586Z,60.02
2022-10-18T11:47:03.057Z,60.89
2022-10-18T11:49:47.358Z,62.28
2022-10-18T11:52:21.915Z,61.78
2022-10-18T11:55:02.669Z,61.95
2022-10-18T11:57:44.474Z,61.33
2022-10-18T12:00:39.650Z,59.90
2022-10-18T12:03:23.964Z,59.64
2022-10-18T12:05:54.821Z,57.50
2022-10-18T12:08:26.747Z,58.37
2022-10-18T12:11:06.646Z,56.98
2022-10-18T12:13:40.151Z,57.77
2022-10-18T12:16:10.610Z,57.99
2022-10-18T12:18:48.659Z,56.91
2022-10-18T12:21:25.473Z,57.79
2022-10-18T12:23:56.753Z,56.35
2022-10-18T12:26:26.258Z,55.91
2022-10-18T12:29:18.303Z,59.16
2022-10-18T12:31:49.505Z,59.98
2022-10-18T12:34:28.683Z,58.47
2022-10-18T12:37:29.421Z,57.79
2022-10-18T12:40:12.168Z,59.50
2022-10-18T12:42:45.289Z,59.70
2022-10-18T12:45:29.002Z,58.94
2022-10-18T12:48:01.232Z,60.56
2022-10-18T12:50:38.199Z,58.90
2022-10-18T12:53:20.312Z,57.17
2022-10-18T12:55:51.647Z,58.45
2022-10-18T12:58:29.409Z,58.40
2022-10-18T13:01:01.346Z,57.42
2022-10-18T13:03:50.659Z,56.70
2022-10-18T13:06:18.765Z,56.85
2022-10-18T13:08:51.157Z,57.66
2022-10-18T13:11:33.358Z,60.05
2022-10-18T13:14:19.095Z,58.82
2022-10-18T13:17:02.175Z,58.37
2022-10-18T13:19:39.352Z,57.41
2022-10-18T13:22:20.484Z,57.74
2022-10-18T13:25:02.347Z,57.91
2022-10-18T13:27:43.153Z,58.28
2022-10-18T13:30:32.640Z,55.41
2022-10-18T13:33:15.230Z,55.14
2022-10-18T13:35:55.205Z,56.96
2022-10-18T13:38:47.275Z,57.96
2022-10-18T13:41:19.425Z,58.19
2022-10-18T13:44:11.520Z,57.08
2022-10-18T13:47:14.992Z,56.95
2022-10-18T13:50:12.160Z,58.71
2022-10-18T13:53:13.010Z,59.80
2022-10-18T13:55:55.890Z,60.54
2022-10-18T13:58:41.074Z,59.53
2022-10-18T14:01:24.438Z,58.52
2022-10-18T14:04:40.958Z,58.50
2022-10-18T14:07:11.537Z,60.42
2022-10-18T14:09:52.270Z,60.47
2022-10-18T14:12:28.137Z,59.95
2022-10-18T14:15:05.296Z,61.95
2022-10-18T14:17:41.895Z,62.34
2022-10-18T14:20:20.782Z,60.94
2022-10-18T14:22:54.480Z,62.67
2022-10-18T14:25:28.380Z,63.25
2022-10-18T14:28:12.596Z,61.79
2022-10-18T14:30:54.805Z,61.34
2022-10-18T14:33:28.532Z,62.15
2022-10-18T14:36:00.767Z,63.22
2022-10-18T14:38:28.923Z,63.35
2022-10-18T14:41:07.147Z,62.94
2022-10-18T14:43:35.247Z,63.42
2022-10-18T14:46:12.910Z,63.15
2022-10-18T14:48:40.950Z,63.37
2022-10-18T14:51:14.795Z,61.87
2022-10-18T14:53:42.945Z,62.97
2022-10-18T14:56:23.333Z,63.74
2022-10-18T14:58:52.488Z,64.65
2022-10-18T15:01:25.729Z,65.59
2022-10-18T15:03:58.907Z,65.84
2022-10-18T15:06:27.430Z,66.90
2022-10-18T15:08:58.373Z,66.63
2022-10-18T15:11:27.388Z,66.57
2022-10-18T15:13:57.901Z,67.71
2022-10-18T15:16:29.096Z,67.50
2022-10-18T15:19:05.236Z,68.32
2022-10-18T15:21:35.332Z,69.36
2022-10-18T15:24:30.435Z,69.19
2022-10-18T15:27:03.301Z,70.26
2022-10-18T15:29:36.410Z,70.82
2022-10-18T15:32:17.462Z,71.65
2022-10-18T15:34:46.003Z,72.90
2022-10-18T15:37:32.309Z,74.16
2022-10-18T15:40:35.958Z,76.54
2022-10-18T15:43:06.846Z,77.52
2022-10-18T15:48:24.085Z,77.35
2022-10-18T15:50:53.695Z,81.15
2022-10-18T15:53:43.906Z,83.74
2022-10-18T15:56:27.015Z,85.24
2022-10-18T15:58:57.029Z,89.64
2022-10-18T16:01:33.490Z,97.93
2022-10-18T16:04:06.255Z,100.00
2022-10-18T16:06:35.419Z,100.00
2022-10-18T16:09:03.395Z,100.00
2022-10-18T16:11:31.456Z,100.00
2022-10-18T16:14:00.539Z,100.00
2022-10-18T16:16:30.371Z,100.00
2022-10-18T16:18:58.846Z,100.00
2022-10-18T16:21:31.483Z,100.00
2022-10-18T16:23:59.291Z,100.00
2022-10-18T16:26:28.697Z,100.00
2022-10-18T16:28:58.098Z,100.00
2022-10-18T16:31:27.830Z,100.00
2022-10-18T16:33:56.662Z,100.00
2022-10-18T16:36:27.574Z,100.00
2022-10-18T16:38:57.797Z,100.00
2022-10-18T16:41:25.879Z,100.00
2022-10-18T16:43:54.337Z,100.00
2022-10-18T16:46:24.973Z,100.00
2022-10-18T16:48:53.209Z,100.00
2022-10-18T16:51:21.773Z,100.00
2022-10-18T16:53:50.149Z,100.00
2022-10-18T16:56:22.410Z,100.00
2022-10-18T16:58:51.665Z,100.00
2022-10-18T17:01:23.076Z,100.00
2022-10-18T17:03:52.594Z,100.00
2022-10-18T17:06:24.012Z,100.00
2022-10-18T17:08:53.580Z,100.00
2022-10-18T17:11:24.569Z,100.00
2022-10-18T17:13:52.963Z,100.00
2022-10-18T17:19:02.260Z,100.00
2022-10-18T17:21:31.973Z,100.00
2022-10-18T17:24:01.631Z,100.00
2022-10-18T17:26:31.586Z,100.00
2022-10-18T17:29:01.855Z,100.00
2022-10-18T17:31:31.503Z,100.00
2022-10-18T17:34:03.735Z,100.00
2022-10-18T17:36:33.023Z,100.00
2022-10-18T17:39:01.451Z,100.00
2022-10-18T17:41:31.166Z,100.00
2022-10-18T17:43:59.425Z,100.00
2022-10-18T17:46:27.831Z,100.00
2022-10-18T17:48:56.448Z,100.00
2022-10-18T17:51:25.334Z,100.00
2022-10-18T17:53:53.856Z,100.00
2022-10-18T17:56:24.065Z,100.00
2022-10-18T17:58:54.438Z,100.00
2022-10-18T18:01:24.509Z,100.00
2022-10-18T18:03:58.214Z,100.00
2022-10-18T18:06:31.436Z,100.00
2022-10-18T18:09:01.309Z,100.00
2022-10-18T18:11:30.286Z,100.00
2022-10-18T18:14:01.062Z,100.00
2022-10-18T18:16:31.401Z,100.00
2022-10-18T18:19:00.111Z,100.00
2022-10-18T18:21:29.210Z,100.00
2022-10-18T18:24:00.381Z,100.00
2022-10-18T18:26:29.008Z,100.00
2022-10-18T18:28:58.338Z,100.00
2022-10-18T18:31:30.828Z,100.00
2022-10-18T18:34:03.192Z,100.00
2022-10-18T18:36:33.101Z,100.00
2022-10-18T18:39:01.355Z,100.00
2022-10-18T18:41:30.298Z,100.00
2022-10-18T18:44:00.473Z,100.00
2022-10-18T18:46:33.405Z,100.00
2022-10-18T18:49:02.332Z,100.00
2022-10-18T18:51:32.640Z,100.00
2022-10-18T18:54:01.315Z,100.00
2022-10-18T18:56:30.420Z,100.00
2022-10-18T18:59:01.625Z,100.00
2022-10-18T19:01:33.019Z,100.00
2022-10-18T19:04:01.956Z,100.00
2022-10-18T19:06:33.074Z,100.00
2022-10-18T19:09:04.539Z,100.00
2022-10-18T19:11:34.491Z,100.00
2022-10-18T19:14:03.502Z,100.00
2022-10-18T19:16:34.862Z,100.00
2022-10-18T19:19:07.348Z,100.00
2022-10-18T19:21:38.507Z,100.00
2022-10-18T19:24:07.447Z,100.00
2022-10-18T19:26:38.136Z,100.00
2022-10-18T19:29:10.326Z,100.00
2022-10-18T19:31:40.673Z,100.00
2022-10-18T19:34:11.346Z,100.00
2022-10-18T19:36:41.650Z,100.00
2022-10-18T19:39:13.467Z,100.00
2022-10-18T19:41:42.192Z,100.00
2022-10-18T19:44:10.592Z,100.00
2022-10-18T19:46:43.863Z,100.00
2022-10-18T19:49:13.550Z,100.00
2022-10-18T19:51:42.656Z,100.00
2022-10-18T19:54:12.825Z,100.00
2022-10-18T19:56:49.272Z,100.00
2022-10-18T19:59:19.055Z,100.00
2022-10-18T20:01:48.830Z,100.00
2022-10-18T20:04:17.738Z,100.00
2022-10-18T20:06:46.071Z,100.00
2022-10-18T20:09:19.343Z,100.00
2022-10-18T20:11:48.959Z,100.00
2022-10-18T20:14:17.052Z,100.00
2022-10-18T20:16:45.078Z,100.00
2022-10-18T20:19:14.531Z,100.00
2022-10-18T20:21:42.537Z,100.00
2022-10-18T20:24:11.996Z,100.00
2022-10-18T20:26:40.727Z,100.00
2022-10-18T20:29:08.863Z,100.00
2022-10-18T20:31:39.199Z,100.00
2022-10-18T20:34:09.980Z,100.00
2022-10-18T20:36:39.415Z,100.00
2022-10-18T20:39:08.164Z,100.00
2022-10-18T20:44:43.525Z,100.00
2022-10-18T20:47:11.496Z,100.00
2022-10-18T20:49:39.477Z,100.00
2022-10-18T20:52:08.847Z,100.00
2022-10-18T20:54:36.840Z,100.00
2022-10-18T20:57:05.017Z,100.00
2022-10-18T20:59:33.675Z,100.00
2022-10-18T21:02:01.810Z,100.00
2022-10-18T21:04:29.911Z,100.00
2022-10-18T21:06:58.408Z,100.00
2022-10-18T21:09:27.964Z,100.00
2022-10-18T21:11:56.352Z,100.00
2022-10-18T21:14:25.616Z,100.00
2022-10-18T21:16:54.039Z,100.00
2022-10-18T21:19:24.349Z,100.00
2022-10-18T21:21:53.912Z,100.00
2022-10-18T21:24:25.538Z,100.00
2022-10-18T21:26:55.782Z,100.00
2022-10-18T21:29:25.025Z,100.00
2022-10-18T21:31:58.280Z,100.00
2022-10-18T21:34:26.655Z,100.00
2022-10-18T21:36:54.908Z,100.00
2022-10-18T21:42:00.463Z,100.00
2022-10-18T21:44:28.471Z,100.00
2022-10-18T21:46:57.156Z,100.00
2022-10-18T21:49:26.374Z,100.00
2022-10-18T21:51:54.373Z,100.00
2022-10-18T21:54:22.417Z,100.00
2022-10-18T21:56:51.228Z,100.00
2022-10-18T21:59:20.674Z,100.00
2022-10-18T22:01:48.792Z,100.00
2022-10-18T22:04:22.205Z,100.00
2022-10-18T22:06:50.877Z,100.00
2022-10-18T22:09:19.356Z,100.00
2022-10-18T22:11:50.449Z,100.00
2022-10-18T22:14:18.465Z,100.00
2022-10-18T22:16:47.926Z,100.00
2022-10-18T22:19:15.969Z,100.00
2022-10-18T22:21:43.994Z,100.00
2022-10-18T22:24:11.997Z,100.00
2022-10-18T22:26:41.765Z,100.00
2022-10-18T22:29:12.948Z,100.00
2022-10-18T22:31:43.886Z,100.00
2022-10-18T22:34:15.852Z,100.00
2022-10-18T22:36:43.962Z,100.00
2022-10-18T22:39:14.407Z,100.00
2022-10-18T22:41:43.859Z,100.00
2022-10-18T22:44:13.406Z,100.00
2022-10-18T22:46:41.470Z,100.00
2022-10-18T22:49:09.780Z,100.00
2022-10-18T22:51:39.332Z,100.00
2022-10-18T22:54:08.203Z,100.00
2022-10-18T22:56:36.259Z,100.00
2022-10-18T22:59:04.727Z,100.00
2022-10-18T23:01:32.848Z,100.00
2022-10-18T23:04:01.836Z,100.00
2022-10-18T23:06:31.475Z,100.00
2022-10-18T23:09:05.046Z,100.00
2022-10-18T23:11:33.222Z,100.00
2022-10-18T23:14:03.781Z,100.00
2022-10-18T23:16:32.023Z,100.00
2022-10-18T23:19:00.482Z,100.00
2022-10-18T23:21:29.433Z,100.00
2022-10-18T23:23:58.254Z,100.00
2022-10-18T23:26:28.973Z,100.00
2022-10-18T23:28:57.427Z,100.00
2022-10-18T23:31:27.176Z,100.00
2022-10-18T23:33:57.504Z,100.00
2022-10-18T23:36:26.552Z,100.00
2022-10-18T23:38:55.142Z,100.00
2022-10-18T23:41:23.622Z,100.00
2022-10-18T23:43:53.353Z,100.00
2022-10-18T23:46:21.798Z,100.00
2022-10-18T23:48:49.981Z,100.00
2022-10-18T23:51:18.621Z,100.00
2022-10-18T23:53:46.828Z,100.00
2022-10-18T23:56:16.969Z,100.00
2022-10-18T23:58:46.127Z,100.00
